createdAt,value
2019-03-24T00:00:31.307Z,28.03
2019-03-24T00:02:59.162Z,29.20
2019-03-24T00:05:26.891Z,27.60
2019-03-24T00:07:56.675Z,29.07
2019-03-24T00:10:23.994Z,31.90
2019-03-24T00:12:52.312Z,24.47
2019-03-24T00:15:26.073Z,28.60
2019-03-24T00:17:49.185Z,28.70
2019-03-24T00:20:17.051Z,29.23
2019-03-24T00:22:44.846Z,29.70
2019-03-24T00:25:12.544Z,28.93
2019-03-24T00:27:40.835Z,27.17
2019-03-24T00:30:08.800Z,28.77
2019-03-24T00:32:36.407Z,29.87
2019-03-24T00:35:04.705Z,29.40
2019-03-24T00:37:32.469Z,33.70
2019-03-24T00:40:01.902Z,29.50
2019-03-24T00:42:29.784Z,29.80
2019-03-24T00:44:57.768Z,31.50
2019-03-24T00:47:25.570Z,29.30
2019-03-24T00:49:53.678Z,32.13
2019-03-24T00:52:21.539Z,28.50
2019-03-24T00:54:49.524Z,29.70
2019-03-24T00:57:17.177Z,29.70
2019-03-24T00:59:45.173Z,28.70
2019-03-24T01:02:12.885Z,30.87
2019-03-24T01:04:40.655Z,32.23
2019-03-24T01:07:08.316Z,28.90
2019-03-24T01:09:35.978Z,33.77
2019-03-24T01:12:03.555Z,30.27
2019-03-24T01:14:32.021Z,28.50
2019-03-24T01:17:00.017Z,32.90
2019-03-24T01:19:27.929Z,30.60
2019-03-24T01:21:55.493Z,31.73
2019-03-24T01:24:23.057Z,31.70
2019-03-24T01:26:50.794Z,32.27
2019-03-24T01:29:18.674Z,32.90
2019-03-24T01:31:46.330Z,32.73
2019-03-24T01:34:13.946Z,31.47
2019-03-24T01:36:41.805Z,32.17
2019-03-24T01:39:09.383Z,32.87
2019-03-24T01:41:36.751Z,32.53
2019-03-24T01:44:04.679Z,33.00
2019-03-24T01:46:32.224Z,35.13
2019-03-24T01:48:59.909Z,34.43
2019-03-24T01:51:27.860Z,34.83
2019-03-24T01:53:55.623Z,35.47
2019-03-24T01:56:23.508Z,35.57
2019-03-24T01:58:51.108Z,34.70
2019-03-24T02:01:18.709Z,30.90
2019-03-24T02:03:46.339Z,37.67
2019-03-24T02:06:14.148Z,34.47
2019-03-24T02:08:42.167Z,36.30
2019-03-24T02:11:10.556Z,35.30
2019-03-24T02:13:38.072Z,36.87
2019-03-24T02:16:09.561Z,34.40
2019-03-24T02:18:34.772Z,32.30
2019-03-24T02:21:02.423Z,32.43
2019-03-24T02:23:30.002Z,36.43
2019-03-24T02:25:57.738Z,38.00
2019-03-24T02:28:25.350Z,39.57
2019-03-24T02:30:52.983Z,36.30
2019-03-24T02:33:21.022Z,32.20
2019-03-24T02:35:49.170Z,35.20
2019-03-24T02:38:16.878Z,33.50
2019-03-24T02:40:44.173Z,41.40
2019-03-24T02:43:11.442Z,36.20
2019-03-24T02:45:38.962Z,36.50
2019-03-24T02:48:06.249Z,36.33
2019-03-24T02:50:33.549Z,35.97
2019-03-24T02:53:01.492Z,38.57
2019-03-24T02:55:29.100Z,35.97
2019-03-24T02:57:56.359Z,36.47
2019-03-24T03:00:23.614Z,35.73
2019-03-24T03:02:50.890Z,36.17
2019-03-24T03:05:18.146Z,35.33
2019-03-24T03:07:45.678Z,34.13
2019-03-24T03:10:13.403Z,33.20
2019-03-24T03:12:40.686Z,34.50
2019-03-24T03:15:08.531Z,34.10
2019-03-24T03:17:35.786Z,33.27
2019-03-24T03:20:04.239Z,34.80
2019-03-24T03:22:31.483Z,36.67
2019-03-24T03:24:58.785Z,36.30
2019-03-24T03:27:26.093Z,37.40
2019-03-24T03:29:53.625Z,39.80
2019-03-24T03:32:20.925Z,35.90
2019-03-24T03:34:48.244Z,34.87
2019-03-24T03:37:15.553Z,33.67
2019-03-24T03:39:42.796Z,38.77
2019-03-24T03:42:10.162Z,35.87
2019-03-24T03:44:37.500Z,36.33
2019-03-24T03:47:04.742Z,36.83
2019-03-24T03:49:31.998Z,37.30
2019-03-24T03:51:59.543Z,38.20
2019-03-24T03:54:26.826Z,34.73
2019-03-24T03:56:54.112Z,34.90
2019-03-24T03:59:21.479Z,44.57
2019-03-24T04:01:48.727Z,37.00
2019-03-24T04:04:16.011Z,39.33
2019-03-24T04:06:43.294Z,37.60
2019-03-24T04:09:10.610Z,44.17
2019-03-24T04:11:37.900Z,36.47
2019-03-24T04:14:05.232Z,44.20
2019-03-24T04:16:32.526Z,41.13
2019-03-24T04:18:59.771Z,41.70
2019-03-24T04:21:27.058Z,49.57
2019-03-24T04:23:54.351Z,50.10
2019-03-24T04:26:21.607Z,54.33
2019-03-24T04:28:48.889Z,49.53
2019-03-24T04:31:16.148Z,48.00
2019-03-24T04:33:43.399Z,40.50
2019-03-24T04:36:10.684Z,46.83
2019-03-24T04:38:37.965Z,48.00
2019-03-24T04:41:05.226Z,49.10
2019-03-24T04:43:32.516Z,50.10
2019-03-24T04:45:59.774Z,49.73
2019-03-24T04:48:27.310Z,50.60
2019-03-24T04:50:54.597Z,49.53
2019-03-24T04:53:22.106Z,49.83
2019-03-24T04:55:49.659Z,47.30
2019-03-24T04:58:16.914Z,47.67
2019-03-24T05:00:44.479Z,47.73
2019-03-24T05:03:11.738Z,47.43
2019-03-24T05:05:39.172Z,49.80
2019-03-24T05:08:06.708Z,46.03
2019-03-24T05:10:34.077Z,44.73
2019-03-24T05:13:01.417Z,46.83
2019-03-24T05:15:28.677Z,42.53
2019-03-24T05:17:56.113Z,45.03
2019-03-24T05:20:23.441Z,45.53
2019-03-24T05:22:50.702Z,43.60
2019-03-24T05:25:17.996Z,45.20
2019-03-24T05:27:45.526Z,44.77
2019-03-24T05:30:12.777Z,42.50
2019-03-24T05:32:40.070Z,42.03
2019-03-24T05:35:07.635Z,48.03
2019-03-24T05:37:34.887Z,47.10
2019-03-24T05:40:02.242Z,49.50
2019-03-24T05:42:29.501Z,46.33
2019-03-24T05:44:56.786Z,44.20
2019-03-24T05:47:24.041Z,46.67
2019-03-24T05:49:51.327Z,43.00
2019-03-24T05:52:18.833Z,48.07
2019-03-24T05:54:46.337Z,45.20
2019-03-24T05:57:13.622Z,45.00
2019-03-24T05:59:40.878Z,44.90
2019-03-24T06:02:08.167Z,45.90
2019-03-24T06:04:35.517Z,42.97
2019-03-24T06:07:02.777Z,46.43
2019-03-24T06:09:30.309Z,41.43
2019-03-24T06:11:57.598Z,48.23
2019-03-24T06:14:24.873Z,44.00
2019-03-24T06:16:52.142Z,43.10
2019-03-24T06:19:19.430Z,47.83
2019-03-24T06:21:46.716Z,43.43
2019-03-24T06:24:14.038Z,44.90
2019-03-24T06:26:41.324Z,41.70
2019-03-24T06:29:08.572Z,43.17
2019-03-24T06:31:35.849Z,42.00
2019-03-24T06:34:03.107Z,39.93
2019-03-24T06:36:30.395Z,44.00
2019-03-24T06:38:57.642Z,41.77
2019-03-24T06:41:24.898Z,42.90
2019-03-24T06:43:52.178Z,41.10
2019-03-24T06:46:19.461Z,39.33
2019-03-24T06:48:46.740Z,40.23
2019-03-24T06:51:14.025Z,41.33
2019-03-24T06:53:41.311Z,43.33
2019-03-24T06:56:08.666Z,44.10
2019-03-24T06:58:35.946Z,43.03
2019-03-24T07:01:03.466Z,45.73
2019-03-24T07:03:32.679Z,45.70
2019-03-24T07:05:59.818Z,45.13
2019-03-24T07:08:27.109Z,42.73
2019-03-24T07:10:54.389Z,43.67
2019-03-24T07:13:21.673Z,43.47
2019-03-24T07:15:48.921Z,44.00
2019-03-24T07:18:16.213Z,39.97
2019-03-24T07:20:43.462Z,41.23
2019-03-24T07:23:10.749Z,41.53
2019-03-24T07:25:38.017Z,42.57
2019-03-24T07:28:05.297Z,42.13
2019-03-24T07:30:32.549Z,40.97
2019-03-24T07:32:59.833Z,41.20
2019-03-24T07:35:27.125Z,45.73
2019-03-24T07:37:54.422Z,41.13
2019-03-24T07:40:21.682Z,41.50
2019-03-24T07:42:49.192Z,41.83
2019-03-24T07:45:16.609Z,38.70
2019-03-24T07:47:43.899Z,42.70
2019-03-24T07:50:11.250Z,42.53
2019-03-24T07:52:38.504Z,39.00
2019-03-24T07:55:06.349Z,42.80
2019-03-24T07:57:33.602Z,42.63
2019-03-24T08:00:01.181Z,41.97
2019-03-24T08:02:28.430Z,41.30
2019-03-24T08:04:55.722Z,43.00
2019-03-24T08:07:23.092Z,43.93
2019-03-24T08:09:50.346Z,42.60
2019-03-24T08:12:17.634Z,42.67
2019-03-24T08:14:44.885Z,38.23
2019-03-24T08:17:12.159Z,42.87
2019-03-24T08:19:39.406Z,43.60
2019-03-24T08:22:06.757Z,38.90
2019-03-24T08:24:34.009Z,38.80
2019-03-24T08:27:01.295Z,38.70
2019-03-24T08:29:28.577Z,42.37
2019-03-24T08:31:55.863Z,45.33
2019-03-24T08:34:23.109Z,42.30
2019-03-24T08:36:50.664Z,41.57
2019-03-24T08:39:17.939Z,42.30
2019-03-24T08:41:45.300Z,41.43
2019-03-24T08:44:12.542Z,40.43
2019-03-24T08:46:39.826Z,40.97
2019-03-24T08:49:07.154Z,41.27
2019-03-24T08:51:34.432Z,39.63
2019-03-24T08:54:01.683Z,38.93
2019-03-24T08:56:29.051Z,36.53
2019-03-24T08:58:56.331Z,38.97
2019-03-24T09:01:23.613Z,41.87
2019-03-24T09:03:50.864Z,39.77
2019-03-24T09:06:18.147Z,41.00
2019-03-24T09:08:45.394Z,39.73
2019-03-24T09:11:12.684Z,39.57
2019-03-24T09:13:39.934Z,40.27
2019-03-24T09:16:07.222Z,40.83
2019-03-24T09:18:34.472Z,38.10
2019-03-24T09:21:01.831Z,40.40
2019-03-24T09:23:29.086Z,41.03
2019-03-24T09:25:56.367Z,40.90
2019-03-24T09:28:23.620Z,40.27
2019-03-24T09:30:50.904Z,41.13
2019-03-24T09:33:18.177Z,39.17
2019-03-24T09:35:45.502Z,39.27
2019-03-24T09:38:12.777Z,40.70
2019-03-24T09:40:40.153Z,40.83
2019-03-24T09:43:07.502Z,39.30
2019-03-24T09:45:34.781Z,37.83
2019-03-24T09:48:02.206Z,39.50
2019-03-24T09:50:29.658Z,38.60
2019-03-24T09:52:56.913Z,40.43
2019-03-24T09:55:24.170Z,38.40
2019-03-24T09:57:51.454Z,40.17
2019-03-24T10:00:18.739Z,37.70
2019-03-24T10:02:45.981Z,40.10
2019-03-24T10:05:13.434Z,39.00
2019-03-24T10:07:40.712Z,37.93
2019-03-24T10:10:08.053Z,41.97
2019-03-24T10:12:35.298Z,38.27
2019-03-24T10:15:02.650Z,39.80
2019-03-24T10:17:29.901Z,38.07
2019-03-24T10:19:57.170Z,37.73
2019-03-24T10:22:24.445Z,37.90
2019-03-24T10:24:51.726Z,39.73
2019-03-24T10:27:18.985Z,35.50
2019-03-24T10:29:46.276Z,37.40
2019-03-24T10:32:13.527Z,37.43
2019-03-24T10:34:40.831Z,36.00
2019-03-24T10:37:08.086Z,38.20
2019-03-24T10:39:35.340Z,38.60
2019-03-24T10:42:02.670Z,36.83
2019-03-24T10:44:29.989Z,35.70
2019-03-24T10:46:57.467Z,35.50
2019-03-24T10:49:25.492Z,35.23
2019-03-24T10:51:53.461Z,35.57
2019-03-24T10:54:20.828Z,33.50
2019-03-24T10:56:48.381Z,33.87
2019-03-24T10:59:15.746Z,34.40
2019-03-24T11:01:43.498Z,34.90
2019-03-24T11:04:10.997Z,34.67
2019-03-24T11:06:38.318Z,34.20
2019-03-24T11:09:06.333Z,32.90
2019-03-24T11:11:33.578Z,31.80
2019-03-24T11:14:02.477Z,32.83
2019-03-24T11:16:29.843Z,35.67
2019-03-24T11:18:57.153Z,30.63
2019-03-24T11:21:24.407Z,29.23
2019-03-24T11:23:51.771Z,30.63
2019-03-24T11:26:19.284Z,29.43
2019-03-24T11:28:46.554Z,29.57
2019-03-24T11:31:13.845Z,30.80
2019-03-24T11:33:41.106Z,29.97
2019-03-24T11:36:08.358Z,28.33
2019-03-24T11:38:35.631Z,29.03
2019-03-24T11:41:02.918Z,29.33
2019-03-24T11:43:30.269Z,27.40
2019-03-24T11:45:57.537Z,30.30
2019-03-24T11:48:24.815Z,28.27
2019-03-24T11:50:52.073Z,32.30
2019-03-24T11:53:19.347Z,30.50
2019-03-24T11:55:46.602Z,31.77
2019-03-24T11:58:13.859Z,32.47
2019-03-24T12:00:41.215Z,32.70
2019-03-24T12:03:08.575Z,30.63
2019-03-24T12:05:35.859Z,34.73
2019-03-24T12:08:03.106Z,31.27
2019-03-24T12:10:30.455Z,31.80
2019-03-24T12:12:57.735Z,28.17
2019-03-24T12:15:25.081Z,29.50
2019-03-24T12:17:52.334Z,28.53
2019-03-24T12:20:19.618Z,29.30
2019-03-24T12:22:46.876Z,29.73
2019-03-24T12:25:14.222Z,29.07
2019-03-24T12:27:41.473Z,28.40
2019-03-24T12:30:09.028Z,30.03
2019-03-24T12:32:36.281Z,28.90
2019-03-24T12:35:05.138Z,27.93
2019-03-24T12:37:32.654Z,27.30
2019-03-24T12:39:59.898Z,30.00
2019-03-24T12:42:27.445Z,29.77
2019-03-24T12:44:54.726Z,29.33
2019-03-24T12:47:21.996Z,27.50
2019-03-24T12:49:49.323Z,29.00
2019-03-24T12:52:16.603Z,30.77
2019-03-24T12:54:43.853Z,28.10
2019-03-24T12:57:11.136Z,26.67
2019-03-24T12:59:38.410Z,27.90
2019-03-24T13:02:05.666Z,26.30
2019-03-24T13:04:32.949Z,28.60
2019-03-24T13:07:00.205Z,29.90
2019-03-24T13:09:27.485Z,28.03
2019-03-24T13:11:54.776Z,27.33
2019-03-24T13:14:22.025Z,26.00
2019-03-24T13:16:49.278Z,27.00
2019-03-24T13:19:16.546Z,26.90
2019-03-24T13:21:43.823Z,26.87
2019-03-24T13:24:11.098Z,28.23
2019-03-24T13:26:38.637Z,26.27
2019-03-24T13:29:05.893Z,25.17
2019-03-24T13:31:33.169Z,27.90
2019-03-24T13:34:00.685Z,25.80
2019-03-24T13:36:27.968Z,25.60
2019-03-24T13:38:55.217Z,26.97
2019-03-24T13:41:22.762Z,25.57
2019-03-24T13:43:50.018Z,25.53
2019-03-24T13:46:17.306Z,24.80
2019-03-24T13:48:44.815Z,24.07
2019-03-24T13:51:12.062Z,24.23
2019-03-24T13:53:39.347Z,25.57
2019-03-24T13:56:06.967Z,24.27
2019-03-24T13:58:34.234Z,22.70
2019-03-24T14:01:01.602Z,22.93
2019-03-24T14:03:28.850Z,24.00
2019-03-24T14:05:56.129Z,23.00
2019-03-24T14:08:23.421Z,22.73
2019-03-24T14:10:50.930Z,24.57
2019-03-24T14:13:18.477Z,23.13
2019-03-24T14:15:45.746Z,24.30
2019-03-24T14:18:13.147Z,23.80
2019-03-24T14:20:43.585Z,24.33
2019-03-24T14:23:09.818Z,24.53
2019-03-24T14:25:37.070Z,25.70
2019-03-24T14:28:04.347Z,25.13
2019-03-24T14:30:38.951Z,24.50
2019-03-24T14:33:06.197Z,26.00
2019-03-24T14:35:33.482Z,24.97
2019-03-24T14:38:00.732Z,23.33
2019-03-24T14:40:28.002Z,22.00
2019-03-24T14:42:55.285Z,21.40
2019-03-24T14:45:23.425Z,22.67
2019-03-24T14:47:50.749Z,22.10
2019-03-24T14:50:18.107Z,22.23
2019-03-24T14:52:45.378Z,23.57
2019-03-24T14:55:12.670Z,21.23
2019-03-24T14:57:40.201Z,20.13
2019-03-24T15:00:08.126Z,17.80
2019-03-24T15:02:35.405Z,18.97
2019-03-24T15:05:02.689Z,17.00
2019-03-24T15:07:29.944Z,18.53
2019-03-24T15:09:57.221Z,16.33
2019-03-24T15:12:24.781Z,16.63
2019-03-24T15:14:52.053Z,17.40
2019-03-24T15:17:19.315Z,17.33
2019-03-24T15:19:46.648Z,17.87
2019-03-24T15:22:13.918Z,17.83
2019-03-24T15:24:41.238Z,16.33
2019-03-24T15:27:08.525Z,18.03
2019-03-24T15:29:35.798Z,17.67
2019-03-24T15:32:03.075Z,15.00
2019-03-24T15:34:30.356Z,17.70
2019-03-24T15:36:57.634Z,17.73
2019-03-24T15:39:24.926Z,15.60
2019-03-24T15:41:52.174Z,17.47
2019-03-24T15:44:19.430Z,17.53
2019-03-24T15:46:46.718Z,16.40
2019-03-24T15:49:13.969Z,16.67
2019-03-24T15:51:41.257Z,17.10
2019-03-24T15:54:08.531Z,16.27
2019-03-24T15:56:35.794Z,16.13
2019-03-24T15:59:03.143Z,16.57
2019-03-24T16:01:30.574Z,16.10
2019-03-24T16:03:58.269Z,15.70
2019-03-24T16:06:25.695Z,15.33
2019-03-24T16:08:53.234Z,15.80
2019-03-24T16:11:20.783Z,14.53
2019-03-24T16:13:48.066Z,14.50
2019-03-24T16:16:15.343Z,15.43
2019-03-24T16:18:42.961Z,14.80
2019-03-24T16:21:10.313Z,15.20
2019-03-24T16:23:37.591Z,16.03
2019-03-24T16:26:04.866Z,16.57
2019-03-24T16:28:32.126Z,16.03
2019-03-24T16:30:59.662Z,17.10
2019-03-24T16:33:26.941Z,16.10
2019-03-24T16:35:54.222Z,18.00
2019-03-24T16:38:21.473Z,17.23
2019-03-24T16:40:48.768Z,18.37
2019-03-24T16:43:16.021Z,17.50
2019-03-24T16:45:43.270Z,18.20
2019-03-24T16:48:10.559Z,19.67
2019-03-24T16:50:37.852Z,18.30
2019-03-24T16:53:05.097Z,17.30
2019-03-24T16:55:32.354Z,18.60
2019-03-24T16:57:59.640Z,18.57
2019-03-24T17:00:26.894Z,18.20
2019-03-24T17:02:54.259Z,19.10
2019-03-24T17:05:21.509Z,19.90
2019-03-24T17:07:48.755Z,19.20
2019-03-24T17:10:16.041Z,19.07
2019-03-24T17:12:43.285Z,17.90
2019-03-24T17:15:10.639Z,18.63
2019-03-24T17:17:37.887Z,20.27
2019-03-24T17:20:06.650Z,19.50
2019-03-24T17:22:33.902Z,17.97
2019-03-24T17:25:01.177Z,19.40
2019-03-24T17:27:28.453Z,20.53
2019-03-24T17:29:55.738Z,20.30
2019-03-24T17:32:23.068Z,21.17
2019-03-24T17:34:50.596Z,20.33
2019-03-24T17:37:17.846Z,20.07
2019-03-24T17:39:45.485Z,19.27
2019-03-24T17:42:12.809Z,20.33
2019-03-24T17:44:40.072Z,22.90
2019-03-24T17:47:07.825Z,20.00
2019-03-24T17:49:35.135Z,22.67
2019-03-24T17:52:02.393Z,19.63
2019-03-24T17:54:29.665Z,20.63
2019-03-24T17:56:56.938Z,21.17
2019-03-24T17:59:24.298Z,19.90
2019-03-24T18:01:52.833Z,19.20
2019-03-24T18:04:24.591Z,17.20
2019-03-24T18:06:50.205Z,16.53
2019-03-24T18:09:17.489Z,17.53
2019-03-24T18:11:44.742Z,17.10
2019-03-24T18:14:12.073Z,16.00
2019-03-24T18:16:39.433Z,13.20
2019-03-24T18:19:07.032Z,15.80
2019-03-24T18:21:34.287Z,15.30
2019-03-24T18:24:01.563Z,13.97
2019-03-24T18:26:29.070Z,14.90
2019-03-24T18:28:56.348Z,14.70
2019-03-24T18:31:23.601Z,13.90
2019-03-24T18:33:50.881Z,12.97
2019-03-24T18:36:18.415Z,12.30
2019-03-24T18:38:45.674Z,13.20
2019-03-24T18:41:12.949Z,12.97
2019-03-24T18:43:40.201Z,12.80
2019-03-24T18:46:07.491Z,12.63
2019-03-24T18:48:34.737Z,12.90
2019-03-24T18:51:02.050Z,11.67
2019-03-24T18:53:29.379Z,11.93
2019-03-24T18:55:56.633Z,12.83
2019-03-24T18:58:23.926Z,12.10
2019-03-24T19:00:51.186Z,11.17
2019-03-24T19:03:18.492Z,9.90
2019-03-24T19:05:45.837Z,8.93
2019-03-24T19:08:13.085Z,9.20
2019-03-24T19:10:40.370Z,9.83
2019-03-24T19:13:07.613Z,9.30
2019-03-24T19:15:37.300Z,9.43
2019-03-24T19:18:04.130Z,9.33
2019-03-24T19:20:31.411Z,8.50
2019-03-24T19:22:58.744Z,6.23
2019-03-24T19:25:26.125Z,6.70
2019-03-24T19:27:53.378Z,5.73
2019-03-24T19:30:22.211Z,6.27
2019-03-24T19:32:49.521Z,6.43
2019-03-24T19:35:16.770Z,7.50
2019-03-24T19:37:45.722Z,7.00
2019-03-24T19:40:14.506Z,6.40
2019-03-24T19:42:41.782Z,5.83
2019-03-24T19:45:09.103Z,6.07
2019-03-24T19:47:36.386Z,6.40
2019-03-24T19:50:04.836Z,5.93
2019-03-24T19:52:32.144Z,5.07
2019-03-24T19:54:59.423Z,6.17
2019-03-24T19:57:26.778Z,5.07
2019-03-24T19:59:54.175Z,6.03
2019-03-24T20:02:21.586Z,5.10
2019-03-24T20:04:49.007Z,4.63
2019-03-24T20:07:16.420Z,5.27
2019-03-24T20:09:44.055Z,6.00
2019-03-24T20:12:11.441Z,5.07
2019-03-24T20:14:39.214Z,4.53
2019-03-24T20:17:06.575Z,4.57
2019-03-24T20:19:33.822Z,5.00
2019-03-24T20:22:01.398Z,4.90
2019-03-24T20:24:28.643Z,5.67
2019-03-24T20:26:55.918Z,5.00
2019-03-24T20:29:23.189Z,3.60
2019-03-24T20:31:50.433Z,4.97
2019-03-24T20:34:17.712Z,5.97
2019-03-24T20:36:44.995Z,5.30
2019-03-24T20:39:12.237Z,4.30
2019-03-24T20:41:39.499Z,4.67
2019-03-24T20:44:07.030Z,4.27
2019-03-24T20:46:34.305Z,4.60
2019-03-24T20:49:01.574Z,5.00
2019-03-24T20:51:28.936Z,4.50
2019-03-24T20:53:56.198Z,3.67
2019-03-24T20:56:23.457Z,4.03
2019-03-24T20:58:51.172Z,4.00
2019-03-24T21:01:18.871Z,4.73
2019-03-24T21:03:46.250Z,4.80
2019-03-24T21:06:13.766Z,4.20
2019-03-24T21:08:41.005Z,4.00
2019-03-24T21:11:08.647Z,4.40
2019-03-24T21:13:35.889Z,4.07
2019-03-24T21:16:03.274Z,4.77
2019-03-24T21:18:30.554Z,3.70
2019-03-24T21:20:57.794Z,3.57
2019-03-24T21:23:29.558Z,3.97
2019-03-24T21:25:54.033Z,4.27
2019-03-24T21:28:21.578Z,3.47
2019-03-24T21:30:48.863Z,3.80
2019-03-24T21:33:16.102Z,3.10
2019-03-24T21:35:43.370Z,3.97
2019-03-24T21:38:10.714Z,3.50
2019-03-24T21:40:37.996Z,2.97
2019-03-24T21:43:06.597Z,3.00
2019-03-24T21:45:34.120Z,3.70
2019-03-24T21:48:01.401Z,3.10
2019-03-24T21:50:28.650Z,2.67
2019-03-24T21:52:55.888Z,2.93
2019-03-24T21:55:23.166Z,3.83
2019-03-24T21:57:57.484Z,3.00
2019-03-24T22:00:21.017Z,2.33
2019-03-24T22:02:48.294Z,2.97
2019-03-24T22:05:15.569Z,3.83
2019-03-24T22:07:42.837Z,2.97
2019-03-24T22:10:10.272Z,2.70
2019-03-24T22:12:37.513Z,3.07
2019-03-24T22:15:06.341Z,2.63
2019-03-24T22:17:33.597Z,2.63
2019-03-24T22:20:01.166Z,3.07
2019-03-24T22:22:28.415Z,2.83
2019-03-24T22:24:55.689Z,3.23
2019-03-24T22:27:22.965Z,2.83
2019-03-24T22:29:50.217Z,2.87
2019-03-24T22:32:17.756Z,2.80
2019-03-24T22:34:45.001Z,2.80
2019-03-24T22:37:16.085Z,3.00
2019-03-24T22:39:41.529Z,2.53
2019-03-24T22:42:08.799Z,3.20
2019-03-24T22:44:36.078Z,3.00
2019-03-24T22:47:03.358Z,3.20
2019-03-24T22:49:30.877Z,3.00
2019-03-24T22:52:06.764Z,3.10
2019-03-24T22:54:27.113Z,3.10
2019-03-24T22:56:54.683Z,3.60
2019-03-24T22:59:21.983Z,2.80
2019-03-24T23:01:49.260Z,2.90
2019-03-24T23:04:16.502Z,2.83
2019-03-24T23:06:43.778Z,3.30
2019-03-24T23:09:11.163Z,2.90
2019-03-24T23:11:38.434Z,3.03
2019-03-24T23:14:05.680Z,3.00
2019-03-24T23:16:33.215Z,2.87
2019-03-24T23:19:00.495Z,3.40
2019-03-24T23:21:27.740Z,2.67
2019-03-24T23:23:54.992Z,3.13
2019-03-24T23:26:22.262Z,2.83
2019-03-24T23:28:49.763Z,3.40
2019-03-24T23:31:17.299Z,3.10
2019-03-24T23:33:44.536Z,2.67
2019-03-24T23:36:11.806Z,2.60
2019-03-24T23:38:39.054Z,3.77
2019-03-24T23:41:06.325Z,3.03
2019-03-24T23:43:33.567Z,3.00
2019-03-24T23:46:01.354Z,2.90
2019-03-24T23:48:28.893Z,3.30
2019-03-24T23:50:56.133Z,3.23
2019-03-24T23:53:23.413Z,3.10
2019-03-24T23:55:50.655Z,2.70
2019-03-24T23:58:17.938Z,3.47
